Time;durP1;ratioP1;P1;durP2;ratioP2;P2;SDS_P1;SDS_P2;PMS_P1;PMS_P2;Temp;Humidity;BMP_temperature;BMP_pressure;BME280_temperature;BME280_humidity;BME280_pressure;Samples;Min_cycle;Max_cycle;Signal;HPM_P1;HPM_P2
2022/01/01 00:00:16;;;;;;;230.35;121.25;;;;;;;3.13;100.00;101363.19;6187307;23;20433;-82
2022/01/01 00:02:44;;;;;;;232.73;120.85;;;;;;;3.38;100.00;101356.44;6188066;23;20028;-83
2022/01/01 00:05:12;;;;;;;218.00;113.20;;;;;;;3.44;100.00;101359.53;6186843;23;20017;-79
2022/01/01 00:07:39;;;;;;;210.43;113.68;;;;;;;3.39;100.00;101366.81;6161542;23;20384;-82
2022/01/01 00:10:07;;;;;;;184.07;99.55;;;;;;;3.32;100.00;101368.13;6188934;23;20467;-84
2022/01/01 00:12:32;;;;;;;184.55;98.95;;;;;;;3.22;100.00;101377.50;6190144;23;20024;-84
2022/01/01 00:14:58;;;;;;;189.07;99.60;;;;;;;2.78;100.00;101381.97;6187611;23;20017;-87
2022/01/01 00:17:23;;;;;;;180.35;92.68;;;;;;;2.84;100.00;101382.44;6187233;23;20016;-86
2022/01/01 00:19:49;;;;;;;178.75;98.65;;;;;;;2.66;100.00;101377.44;6160465;23;20013;-84
2022/01/01 00:22:14;;;;;;;182.15;99.65;;;;;;;2.93;100.00;101357.47;6186774;23;20013;-86
2022/01/01 00:24:40;;;;;;;195.68;96.45;;;;;;;2.81;100.00;101355.63;6186927;23;20005;-83
2022/01/01 00:27:06;;;;;;;170.98;89.45;;;;;;;3.08;100.00;101343.47;6185590;23;20023;-82
2022/01/01 00:29:31;;;;;;;179.98;91.47;;;;;;;3.14;100.00;101343.09;6159312;23;20499;-82
2022/01/01 00:31:57;;;;;;;178.30;92.53;;;;;;;3.19;100.00;101330.53;6187154;23;20037;-81
2022/01/01 00:34:22;;;;;;;160.68;87.57;;;;;;;3.18;100.00;101328.88;6185981;23;20096;-82
2022/01/01 00:36:48;;;;;;;145.18;79.10;;;;;;;2.88;100.00;101339.44;6185678;23;20344;-83
2022/01/01 00:39:13;;;;;;;134.30;71.65;;;;;;;2.83;100.00;101338.03;6159337;23;20016;-81
2022/01/01 00:41:39;;;;;;;142.77;77.72;;;;;;;2.63;100.00;101335.75;6185355;23;20068;-81
2022/01/01 00:44:05;;;;;;;143.23;74.90;;;;;;;2.67;100.00;101326.81;6185904;23;20005;-83
2022/01/01 00:46:30;;;;;;;131.93;68.78;;;;;;;2.90;100.00;101324.47;6185987;23;20156;-84
2022/01/01 00:48:56;;;;;;;129.32;69.78;;;;;;;3.07;100.00;101321.69;6159050;23;20024;-85
2022/01/01 00:51:21;;;;;;;129.85;68.57;;;;;;;3.07;100.00;101319.06;6159448;23;20005;-83
2022/01/01 00:53:49;;;;;;;111.28;62.10;;;;;;;3.23;100.00;101321.56;6186310;23;20071;-86
2022/01/01 00:56:15;;;;;;;99.20;53.65;;;;;;;3.30;100.00;101322.84;6185193;23;20016;-83
2022/01/01 00:58:40;;;;;;;102.47;57.25;;;;;;;3.36;100.00;101325.09;6185689;23;20017;-81
2022/01/01 01:01:07;;;;;;;101.85;55.80;;;;;;;3.31;100.00;101319.31;6185733;23;20071;-84
2022/01/01 01:03:33;;;;;;;96.25;55.22;;;;;;;3.52;100.00;101333.66;6185273;23;20001;-82
2022/01/01 01:05:59;;;;;;;102.20;54.88;;;;;;;3.61;100.00;101327.81;6185830;23;20013;-85
2022/01/01 01:08:26;;;;;;;84.57;48.40;;;;;;;3.49;100.00;101320.75;6185133;23;20495;-84
2022/01/01 01:10:52;;;;;;;80.80;46.20;;;;;;;3.34;100.00;101329.59;6185228;23;20074;-82
2022/01/01 01:13:20;;;;;;;82.40;45.90;;;;;;;3.31;100.00;101335.03;6186966;23;20013;-87
2022/01/01 01:15:46;;;;;;;84.18;47.53;;;;;;;3.54;100.00;101347.53;6185986;23;20013;-84
2022/01/01 01:18:13;;;;;;;83.38;46.78;;;;;;;2.99;100.00;101349.25;6185868;23;20024;-86
2022/01/01 01:20:39;;;;;;;86.28;48.00;;;;;;;2.92;100.00;101354.00;6187663;23;20375;-83
2022/01/01 01:23:05;;;;;;;84.75;48.67;;;;;;;2.83;100.00;101358.97;6186126;23;20067;-83
2022/01/01 01:25:38;;;;;;;87.07;49.58;;;;;;;2.77;100.00;101359.34;6184332;23;20698;-84
2022/01/01 01:28:07;;;;;;;;;;;;;;;2.54;100.00;101368.56;6185993;23;20009;-84
2022/01/01 01:30:33;;;;;;;86.40;48.35;;;;;;;2.44;100.00;101368.25;6185504;23;20002;-84
2022/01/01 01:32:59;;;;;;;87.85;48.15;;;;;;;2.42;100.00;101367.50;6182879;23;20034;-83
2022/01/01 01:35:25;;;;;;;89.68;52.22;;;;;;;2.39;100.00;101374.66;6183433;23;20009;-85
2022/01/01 01:37:50;;;;;;;90.45;49.03;;;;;;;2.27;100.00;101378.84;6183826;23;20009;-87
2022/01/01 01:40:16;;;;;;;84.45;48.17;;;;;;;2.14;100.00;101380.50;6184647;23;20075;-83
2022/01/01 01:42:43;;;;;;;75.78;42.72;;;;;;;2.18;100.00;101379.38;6184172;23;20344;-85
2022/01/01 01:45:15;;;;;;;72.68;42.33;;;;;;;2.22;100.00;101380.06;6184805;23;20500;-82
2022/01/01 01:47:41;;;;;;;67.38;36.88;;;;;;;2.13;100.00;101378.78;6184818;23;20016;-88
2022/01/01 01:50:10;;;;;;;63.67;36.38;;;;;;;1.92;100.00;101364.34;6184611;23;20452;-88
2022/01/01 01:52:37;;;;;;;68.53;37.60;;;;;;;1.76;100.00;101371.31;6191657;23;20012;-87
2022/01/01 01:55:10;;;;;;;69.25;38.35;;;;;;;1.72;100.00;101378.53;6185706;23;20136;-86
2022/01/01 01:57:39;;;;;;;70.35;39.25;;;;;;;1.60;100.00;101378.34;6184570;23;20016;-84
2022/01/01 02:00:14;;;;;;;74.78;39.90;;;;;;;1.56;100.00;101373.28;6158758;23;20009;-84
2022/01/01 02:02:39;;;;;;;88.38;43.05;;;;;;;1.68;100.00;101381.38;6183949;23;20025;-86
2022/01/01 02:05:05;;;;;;;84.07;42.05;;;;;;;1.81;100.00;101382.38;6184900;23;20015;-83
2022/01/01 02:07:31;;;;;;;118.13;41.63;;;;;;;1.71;100.00;101376.81;6158832;23;20032;-84
2022/01/01 02:09:57;;;;;;;113.22;41.22;;;;;;;1.81;100.00;101379.78;6185054;23;20478;-86
2022/01/01 02:12:23;;;;;;;122.85;42.13;;;;;;;1.74;100.00;101381.03;6184971;23;20064;-85
2022/01/01 02:17:24;;;;;;;213.20;44.20;;;;;;;1.50;100.00;101378.00;6185227;23;20042;-83
2022/01/01 02:19:54;;;;;;;239.93;44.00;;;;;;;1.37;100.00;101380.44;6158047;23;20089;-88
2022/01/01 02:22:20;;;;;;;188.15;44.78;;;;;;;1.56;100.00;101381.13;6186126;23;20017;-87
2022/01/01 02:24:46;;;;;;;290.13;45.58;;;;;;;1.34;100.00;101378.00;6185492;23;20112;-85
2022/01/01 02:27:12;;;;;;;267.92;43.08;;;;;;;1.54;100.00;101385.59;6184385;23;20016;-87
2022/01/01 02:29:38;;;;;;;330.40;44.20;;;;;;;1.39;100.00;101375.97;6185028;23;20504;-87
2022/01/01 02:32:08;;;;;;;89.60;40.17;;;;;;;1.58;100.00;101380.19;6184259;23;20025;-83
2022/01/01 02:34:35;;;;;;;141.18;40.55;;;;;;;1.52;100.00;101386.59;6184521;23;20008;-81
2022/01/01 02:37:01;;;;;;;103.28;37.03;;;;;;;1.68;100.00;101387.44;6185351;23;20013;-84
2022/01/01 02:39:26;;;;;;;89.28;37.45;;;;;;;1.83;100.00;101380.50;6184451;23;20013;-84
2022/01/01 02:41:54;;;;;;;191.57;37.50;;;;;;;1.91;100.00;101379.19;6184279;23;20013;-83
2022/01/01 02:44:21;;;;;;;154.40;35.88;;;;;;;1.73;100.00;101369.75;6184700;23;20077;-89
2022/01/01 02:46:47;;;;;;;203.45;37.47;;;;;;;1.50;100.00;101368.41;6185304;23;20025;-86
2022/01/01 02:49:12;;;;;;;109.70;36.50;;;;;;;1.85;100.00;101363.00;6157835;23;20005;-83
2022/01/01 02:51:38;;;;;;;78.60;35.10;;;;;;;1.67;100.00;101364.00;6184562;23;20012;-82
2022/01/01 02:54:03;;;;;;;73.30;35.63;;;;;;;1.95;100.00;101358.94;6183833;23;20403;-82
2022/01/01 02:56:29;;;;;;;76.90;35.53;;;;;;;1.74;100.00;101353.13;6183592;23;20005;-84
2022/01/01 02:58:54;;;;;;;98.72;34.88;;;;;;;1.71;100.00;101355.94;6185035;23;20011;-84
2022/01/01 03:01:20;;;;;;;107.25;33.75;;;;;;;1.34;100.00;101351.03;6185209;23;20012;-82
2022/01/01 03:03:47;;;;;;;116.38;35.75;;;;;;;1.13;100.00;101341.75;6159994;23;20020;-84
2022/01/01 03:06:19;;;;;;;71.13;34.70;;;;;;;1.02;100.00;101335.34;6186178;23;20017;-83
2022/01/01 03:08:55;;;;;;;109.93;37.50;;;;;;;0.90;100.00;101325.53;6159855;23;20028;-84
2022/01/01 03:11:21;;;;;;;64.45;36.72;;;;;;;1.02;100.00;101324.06;6172601;23;20317;-83
2022/01/01 03:13:48;;;;;;;62.78;34.88;;;;;;;0.93;100.00;101324.53;6195443;23;20012;-82
2022/01/01 03:16:15;;;;;;;60.13;35.88;;;;;;;1.13;100.00;101316.47;6195765;23;20040;-82
2022/01/01 03:18:41;;;;;;;61.92;36.30;;;;;;;1.31;100.00;101325.94;6209412;23;20059;-82
2022/01/01 03:21:07;;;;;;;55.75;33.25;;;;;;;1.31;100.00;101312.88;6196513;23;20017;-83
2022/01/01 03:23:33;;;;;;;61.95;35.25;;;;;;;1.16;100.00;101305.84;6184909;23;20036;-82
2022/01/01 03:25:59;;;;;;;65.13;36.30;;;;;;;1.19;100.00;101318.78;6186807;23;20163;-84
2022/01/01 03:28:25;;;;;;;59.38;35.35;;;;;;;1.27;100.00;101316.56;6185098;23;20366;-85
2022/01/01 03:30:50;;;;;;;63.25;36.35;;;;;;;1.31;100.00;101315.50;6184799;23;20024;-85
2022/01/01 03:33:16;;;;;;;62.10;35.42;;;;;;;1.27;100.00;101313.97;6190227;23;20013;-88
2022/01/01 03:35:42;;;;;;;63.40;36.30;;;;;;;1.35;100.00;101317.00;6184185;23;20504;-85
2022/01/01 03:38:10;;;;;;;65.85;36.58;;;;;;;1.49;100.00;101309.22;6157557;23;20396;-84
2022/01/01 03:40:36;;;;;;;93.15;35.53;;;;;;;1.34;100.00;101304.88;6184231;23;20037;-84
2022/01/01 03:43:01;;;;;;;84.30;35.78;;;;;;;1.36;100.00;101305.63;6184807;23;20044;-84
2022/01/01 03:45:27;;;;;;;63.60;34.95;;;;;;;1.31;100.00;101304.19;6185070;23;20071;-85
2022/01/01 03:47:53;;;;;;;71.22;33.47;;;;;;;1.18;100.00;101311.84;6163063;23;20013;-85
2022/01/01 03:50:19;;;;;;;132.05;35.60;;;;;;;1.20;100.00;101315.22;6190297;23;20087;-85
2022/01/01 03:52:45;;;;;;;83.05;33.60;;;;;;;1.10;100.00;101305.34;6188946;23;20151;-86
2022/01/01 03:55:12;;;;;;;127.10;34.42;;;;;;;0.98;100.00;101297.28;6193109;23;20015;-85
2022/01/01 03:57:37;;;;;;;181.85;34.42;;;;;;;0.89;100.00;101302.16;6192802;23;20005;-83
2022/01/01 04:00:06;;;;;;;200.18;35.28;;;;;;;0.81;100.00;101305.16;6192198;23;20344;-86
2022/01/01 04:02:39;;;;;;;96.20;32.72;;;;;;;0.75;100.00;101309.84;6191335;23;20068;-90
2022/01/01 04:05:05;;;;;;;88.30;33.85;;;;;;;0.95;100.00;101315.72;6166721;23;20005;-84
2022/01/01 04:07:35;;;;;;;62.03;33.47;;;;;;;1.14;100.00;101318.16;6162507;23;20005;-87
2022/01/01 04:10:00;;;;;;;63.35;31.40;;;;;;;0.97;100.00;101315.59;6188957;23;20024;-86
2022/01/01 04:12:26;;;;;;;61.22;32.60;;;;;;;1.07;100.00;101321.19;6136558;23;20021;-85
2022/01/01 04:14:53;;;;;;;71.53;31.55;;;;;;;1.13;100.00;101315.66;6187722;23;20365;-91
2022/01/01 04:17:19;;;;;;;64.57;29.30;;;;;;;0.98;100.00;101317.31;6186215;23;20009;-85
2022/01/01 04:19:44;;;;;;;64.18;30.50;;;;;;;1.17;100.00;101318.00;6186704;23;20017;-86
2022/01/01 04:22:14;;;;;;;58.47;30.63;;;;;;;0.94;100.00;101321.00;6186995;23;20013;-86
2022/01/01 04:24:40;;;;;;;54.95;30.08;;;;;;;0.87;100.00;101309.19;6187102;23;20009;-85
2022/01/01 04:27:07;;;;;;;89.38;32.50;;;;;;;0.97;100.00;101310.38;6187250;23;20112;-85
2022/01/01 04:29:33;;;;;;;65.18;34.65;;;;;;;1.11;100.00;101301.81;6160835;23;20400;-87
2022/01/01 04:32:00;;;;;;;105.85;34.65;;;;;;;0.81;100.00;101292.09;6187182;23;20009;-86
2022/01/01 04:34:26;;;;;;;170.35;36.22;;;;;;;0.66;100.00;101315.56;6187003;23;20005;-85
2022/01/01 04:37:02;;;;;;;152.55;35.65;;;;;;;0.68;100.00;101324.97;6161152;23;20009;-86
2022/01/01 04:39:28;;;;;;;118.88;36.00;;;;;;;0.58;100.00;101325.53;6186581;23;20523;-85
2022/01/01 04:41:53;;;;;;;127.65;37.22;;;;;;;0.64;100.00;101304.34;6184588;23;20083;-85
2022/01/01 04:44:19;;;;;;;75.75;35.92;;;;;;;1.05;100.00;101308.22;6186807;23;20009;-86
2022/01/01 04:46:47;;;;;;;91.97;36.00;;;;;;;0.95;100.00;101317.47;6187048;23;20017;-86
2022/01/01 04:49:13;;;;;;;89.50;38.22;;;;;;;0.69;100.00;101310.19;6185992;23;20009;-88
2022/01/01 04:51:39;;;;;;;66.97;36.22;;;;;;;1.04;100.00;101309.16;6160310;23;20050;-86
2022/01/01 04:54:11;;;;;;;73.80;35.78;;;;;;;1.17;100.00;101311.94;6186754;23;20036;-85
2022/01/01 04:56:42;;;;;;;107.18;34.90;;;;;;;0.92;100.00;101323.69;6186971;23;20464;-87
2022/01/01 04:59:08;;;;;;;89.97;34.00;;;;;;;0.87;100.00;101322.25;6186584;23;20020;-87
2022/01/01 05:01:34;;;;;;;110.05;35.13;;;;;;;0.93;100.00;101316.69;6135516;23;20349;-87
2022/01/01 05:04:00;;;;;;;67.47;31.27;;;;;;;0.87;100.00;101309.19;6186477;23;20341;-86
2022/01/01 05:06:26;;;;;;;68.88;31.05;;;;;;;0.87;100.00;101310.03;6160321;23;20032;-86
2022/01/01 05:08:52;;;;;;;100.45;32.08;;;;;;;0.82;100.00;101321.66;6160454;23;20444;-88
2022/01/01 05:11:18;;;;;;;52.28;28.88;;;;;;;1.15;100.00;101327.69;6187235;23;20045;-87
2022/01/01 05:13:43;;;;;;;54.72;30.48;;;;;;;1.05;100.00;101313.44;6160067;23;20001;-85
2022/01/01 05:16:14;;;;;;;50.47;29.30;;;;;;;1.20;100.00;101322.19;6186692;23;20063;-87
2022/01/01 05:18:46;;;;;;;46.05;29.08;;;;;;;1.41;100.00;101328.88;6186708;23;20501;-85
2022/01/01 05:21:12;;;;;;;47.50;28.38;;;;;;;1.17;100.00;101325.81;6160046;23;20041;-87
2022/01/01 05:23:38;;;;;;;46.08;28.23;;;;;;;1.12;100.00;101340.91;6186453;23;20456;-87
2022/01/01 05:26:04;;;;;;;44.35;27.88;;;;;;;1.08;100.00;101325.47;6160100;23;20040;-89
2022/01/01 05:28:29;;;;;;;44.08;27.52;;;;;;;0.88;100.00;101336.97;6186311;23;20384;-86
2022/01/01 05:30:55;;;;;;;38.70;26.38;;;;;;;1.00;100.00;101328.50;6159896;23;20005;-87
2022/01/01 05:33:21;;;;;;;48.78;25.67;;;;;;;0.80;100.00;101333.91;6186775;23;20027;-88
2022/01/01 05:35:46;;;;;;;41.20;26.65;;;;;;;1.05;100.00;101336.94;6186327;23;20092;-85
2022/01/01 05:38:12;;;;;;;41.20;25.48;;;;;;;0.98;100.00;101339.03;6160458;23;20023;-87
2022/01/01 05:40:37;;;;;;;57.22;24.33;;;;;;;0.99;100.00;101342.50;6186531;23;20013;-88
2022/01/01 05:43:03;;;;;;;50.03;24.98;;;;;;;0.85;100.00;101350.19;6186066;23;20090;-86
2022/01/01 05:45:28;;;;;;;67.43;26.35;;;;;;;0.83;100.00;101367.69;6186524;23;20005;-86
2022/01/01 05:47:55;;;;;;;44.92;25.35;;;;;;;0.75;100.00;101368.09;6159969;23;20421;-85
2022/01/01 05:50:20;;;;;;;65.30;26.23;;;;;;;0.66;100.00;101363.34;6186270;23;20029;-85
2022/01/01 05:52:47;;;;;;;88.43;26.77;;;;;;;1.04;100.00;101353.50;6186287;23;20084;-86
2022/01/01 05:55:13;;;;;;;58.65;25.45;;;;;;;1.29;100.00;101353.91;6186562;23;20009;-87
2022/01/01 05:57:39;;;;;;;51.10;26.90;;;;;;;1.68;100.00;101355.25;6186089;23;20064;-88
2022/01/01 06:00:08;;;;;;;64.50;24.55;;;;;;;1.68;100.00;101357.88;6186319;23;20420;-85
2022/01/01 06:02:43;;;;;;;92.30;25.23;;;;;;;1.49;100.00;101361.47;6186797;23;20068;-86
2022/01/01 06:05:10;;;;;;;55.70;25.48;;;;;;;1.18;100.00;101353.63;6186558;23;20071;-88
2022/01/01 06:07:36;;;;;;;66.88;26.42;;;;;;;1.12;100.00;101353.97;6186502;23;20015;-87
2022/01/01 06:10:03;;;;;;;73.68;26.77;;;;;;;1.22;100.00;101363.00;6160167;23;20496;-87
2022/01/01 06:12:28;;;;;;;92.07;27.10;;;;;;;1.12;100.00;101367.00;6186650;23;20503;-88
2022/01/01 06:14:54;;;;;;;170.43;28.23;;;;;;;1.15;100.00;101377.28;6186171;23;20009;-85
2022/01/01 06:17:19;;;;;;;104.57;28.08;;;;;;;1.09;100.00;101380.22;6185719;23;20009;-86
2022/01/01 06:19:45;;;;;;;83.55;27.23;;;;;;;1.30;100.00;101362.56;6159799;23;20040;-86
2022/01/01 06:22:11;;;;;;;224.55;31.25;;;;;;;1.02;100.00;101377.09;6186519;23;20126;-85
2022/01/01 06:24:36;;;;;;;177.13;32.90;;;;;;;0.73;100.00;101374.31;6186317;23;20020;-85
2022/01/01 06:27:02;;;;;;;251.60;36.55;;;;;;;0.65;100.00;101381.69;6160134;23;20412;-87
2022/01/01 06:29:28;;;;;;;320.67;38.95;;;;;;;0.62;100.00;101381.84;6186530;23;20089;-87
2022/01/01 06:31:54;;;;;;;329.35;41.97;;;;;;;0.62;100.00;101381.84;6185987;23;20084;-86
2022/01/01 06:34:19;;;;;;;362.40;43.72;;;;;;;0.51;100.00;101393.66;6186231;23;20097;-84
2022/01/01 06:36:45;;;;;;;351.80;43.85;;;;;;;0.42;100.00;101396.72;6185978;23;20020;-84
2022/01/01 06:39:10;;;;;;;126.45;41.75;;;;;;;0.66;100.00;101389.44;6186026;23;20459;-85
2022/01/01 06:41:36;;;;;;;289.67;42.13;;;;;;;0.58;100.00;101385.50;6186043;23;20008;-86
2022/01/01 06:44:02;;;;;;;109.93;40.38;;;;;;;0.68;100.00;101391.94;6160392;23;20012;-86
2022/01/01 06:46:27;;;;;;;247.40;39.72;;;;;;;0.94;100.00;101394.06;6186255;23;20096;-86
2022/01/01 06:48:53;;;;;;;126.47;36.92;;;;;;;1.03;100.00;101398.78;6160093;23;20441;-86
2022/01/01 06:51:19;;;;;;;194.38;35.55;;;;;;;0.90;100.00;101408.19;6188372;23;20013;-90
2022/01/01 06:53:44;;;;;;;174.85;33.83;;;;;;;0.88;100.00;101407.44;6189115;23;20001;-89
2022/01/01 06:56:10;;;;;;;119.00;33.90;;;;;;;1.00;100.00;101404.19;6187819;23;20463;-89
2022/01/01 06:58:37;;;;;;;138.90;33.03;;;;;;;1.26;100.00;101401.03;6186831;23;20086;-86
2022/01/01 07:01:03;;;;;;;93.82;31.08;;;;;;;1.08;100.00;101416.84;6159823;23;20033;-84
2022/01/01 07:03:29;;;;;;;95.25;32.00;;;;;;;1.36;100.00;101415.28;6187290;23;20005;-89
2022/01/01 07:05:55;;;;;;;158.07;31.90;;;;;;;1.09;100.00;101432.44;6187194;23;20009;-88
2022/01/01 07:08:21;;;;;;;110.43;30.00;;;;;;;1.22;100.00;101425.66;6189769;23;20013;-89
2022/01/01 07:10:47;;;;;;;117.18;30.50;;;;;;;1.27;100.00;101431.47;6162158;23;20013;-86
2022/01/01 07:13:14;;;;;;;59.40;26.48;;;;;;;1.33;100.00;101418.06;6187721;23;20009;-89
2022/01/01 07:15:39;;;;;;;98.63;30.48;;;;;;;1.52;100.00;101416.16;6188131;23;20080;-88
2022/01/01 07:18:05;;;;;;;53.00;26.67;;;;;;;1.73;100.00;101423.75;6188214;23;20001;-88
2022/01/01 07:20:31;;;;;;;53.60;27.58;;;;;;;1.77;100.00;101433.13;6186957;23;20067;-91
2022/01/01 07:22:56;;;;;;;120.43;27.52;;;;;;;1.67;100.00;101437.16;6187289;23;20013;-90
2022/01/01 07:25:22;;;;;;;95.05;26.45;;;;;;;1.42;100.00;101435.88;6187348;23;20086;-87
2022/01/01 07:27:47;;;;;;;67.38;26.58;;;;;;;1.54;100.00;101442.22;6188685;23;20013;-88
2022/01/01 07:30:13;;;;;;;142.07;29.33;;;;;;;1.36;100.00;101454.47;6189108;23;20060;-88
2022/01/01 07:32:44;;;;;;;105.47;29.23;;;;;;;1.24;100.00;101460.34;6188803;23;20005;-85
2022/01/01 07:35:11;;;;;;;212.20;32.20;;;;;;;1.13;100.00;101470.50;6188518;23;20009;-88
2022/01/01 07:37:36;;;;;;;175.85;30.30;;;;;;;1.23;100.00;101478.69;6188485;23;20008;-86
2022/01/01 07:40:07;;;;;;;124.90;31.38;;;;;;;1.04;100.00;101470.97;6188217;23;20048;-84
2022/01/01 07:42:33;;;;;;;182.73;33.65;;;;;;;0.84;100.00;101471.97;6188990;23;20433;-85
2022/01/01 07:45:02;;;;;;;177.70;35.83;;;;;;;0.87;100.00;101477.03;6189767;23;20005;-84
2022/01/01 07:47:27;;;;;;;167.27;35.63;;;;;;;0.74;100.00;101475.13;6196202;23;20019;-85
2022/01/01 07:49:53;;;;;;;82.75;34.53;;;;;;;0.68;100.00;101480.66;6188515;23;20016;-84
2022/01/01 07:52:19;;;;;;;108.15;35.20;;;;;;;0.67;100.00;101476.34;6188909;23;20028;-83
2022/01/01 07:54:44;;;;;;;162.68;38.33;;;;;;;0.75;100.00;101476.81;6188530;23;20009;-87
2022/01/01 07:57:10;;;;;;;187.20;35.35;;;;;;;0.77;100.00;101474.97;6188773;23;20005;-85
2022/01/01 07:59:35;;;;;;;174.63;37.00;;;;;;;0.72;100.00;101476.97;6189135;23;20028;-86
2022/01/01 08:02:01;;;;;;;259.23;38.72;;;;;;;0.62;100.00;101475.72;6162379;23;20017;-88
2022/01/01 08:04:27;;;;;;;287.58;39.13;;;;;;;0.61;100.00;101484.47;6188641;23;20432;-86
2022/01/01 08:06:52;;;;;;;106.85;39.78;;;;;;;0.69;100.00;101482.34;6188875;23;20016;-86
2022/01/01 08:09:17;;;;;;;77.13;34.97;;;;;;;0.91;100.00;101498.59;6189809;23;20024;-87
2022/01/01 08:11:43;;;;;;;84.90;31.88;;;;;;;1.05;100.00;101498.75;6190748;23;20128;-85
2022/01/01 08:14:09;;;;;;;154.90;30.52;;;;;;;1.15;100.00;101502.59;6191156;23;20040;-87
2022/01/01 08:16:35;;;;;;;89.97;30.30;;;;;;;0.98;100.00;101500.00;6191316;23;20108;-84
2022/01/01 08:19:00;;;;;;;101.35;27.70;;;;;;;0.82;100.00;101499.94;6191065;23;20001;-87
2022/01/01 08:21:26;;;;;;;79.88;30.88;;;;;;;1.08;100.00;101506.44;6164341;23;20013;-84
2022/01/01 08:23:51;;;;;;;57.95;28.75;;;;;;;1.51;100.00;101503.31;6190131;23;20001;-87
2022/01/01 08:26:17;;;;;;;53.75;25.90;;;;;;;1.52;100.00;101502.34;6191646;23;20005;-86
2022/01/01 08:28:42;;;;;;;42.08;25.70;;;;;;;1.86;100.00;101505.78;6203241;23;20005;-85
2022/01/01 08:31:11;;;;;;;56.10;25.38;;;;;;;1.93;100.00;101507.16;6213549;23;19989;-87
2022/01/01 08:33:36;;;;;;;51.28;24.60;;;;;;;1.70;100.00;101510.16;6213419;23;20009;-85
2022/01/01 08:36:03;;;;;;;41.40;23.27;;;;;;;2.10;100.00;101514.94;6211280;23;20013;-86
2022/01/01 08:38:30;;;;;;;80.22;23.65;;;;;;;2.02;100.00;101511.91;6211335;23;20009;-86
2022/01/01 08:40:56;;;;;;;40.83;24.65;;;;;;;2.21;100.00;101512.59;6211549;23;20001;-85
2022/01/01 08:43:24;;;;;;;73.72;23.63;;;;;;;2.31;100.00;101513.75;6211800;23;20013;-86
2022/01/01 08:45:51;;;;;;;70.15;24.75;;;;;;;2.09;100.00;101518.47;6210518;23;20009;-86
2022/01/01 08:48:16;;;;;;;92.72;26.95;;;;;;;2.01;100.00;101512.81;6182897;23;20040;-87
2022/01/01 08:50:42;;;;;;;106.13;27.83;;;;;;;2.31;100.00;101518.16;6204944;23;19993;-86
2022/01/01 08:53:08;;;;;;;117.15;27.35;;;;;;;2.60;100.00;101520.81;6212749;23;20008;-86
2022/01/01 08:55:33;;;;;;;44.63;25.30;;;;;;;2.82;100.00;101516.94;6212794;23;19993;-87
2022/01/01 08:57:59;;;;;;;117.25;27.73;;;;;;;2.73;100.00;101535.81;6187374;23;20001;-88
2022/01/01 09:00:24;;;;;;;55.88;27.25;;;;;;;2.94;100.00;101535.44;6212602;23;20033;-87
2022/01/01 09:02:50;;;;;;;71.22;27.15;;;;;;;2.78;100.00;101539.88;6186513;23;20027;-89
2022/01/01 09:05:15;;;;;;;66.03;26.52;;;;;;;2.67;100.00;101536.16;6211696;23;20005;-88
2022/01/01 09:07:41;;;;;;;57.33;24.88;;;;;;;2.64;100.00;101536.34;6212563;23;20013;-87
2022/01/01 09:10:07;;;;;;;42.88;25.80;;;;;;;2.79;100.00;101540.69;6211194;23;20021;-87
2022/01/01 09:12:33;;;;;;;55.78;26.95;;;;;;;2.82;100.00;101535.28;6186640;23;20001;-87
2022/01/01 09:14:58;;;;;;;62.85;26.40;;;;;;;2.71;100.00;101541.16;6207857;23;20066;-85
2022/01/01 09:17:24;;;;;;;47.05;26.58;;;;;;;3.02;100.00;101540.22;6170874;23;20334;-85
2022/01/01 09:19:50;;;;;;;42.17;25.63;;;;;;;3.38;100.00;101551.16;6196995;23;20067;-86
2022/01/01 09:22:16;;;;;;;46.67;25.85;;;;;;;3.33;100.00;101547.97;6195112;23;20020;-86
2022/01/01 09:24:41;;;;;;;39.72;23.70;;;;;;;3.65;100.00;101553.88;6197745;23;20397;-86
2022/01/01 09:27:07;;;;;;;42.03;23.02;;;;;;;4.03;100.00;101543.69;6194035;23;20013;-86
2022/01/01 09:29:33;;;;;;;36.03;22.33;;;;;;;4.10;100.00;101550.25;6194036;23;20009;-86
2022/01/01 09:31:59;;;;;;;32.30;21.58;;;;;;;3.73;100.00;101553.44;6167246;23;20345;-87
2022/01/01 09:34:25;;;;;;;33.10;20.23;;;;;;;4.04;100.00;101555.88;6194038;23;20011;-86
2022/01/01 09:36:51;;;;;;;40.40;20.02;;;;;;;4.18;100.00;101558.47;6120612;23;1177230;-87
2022/01/01 09:39:17;;;;;;;31.02;20.15;;;;;;;3.90;100.00;101558.50;6194682;23;20017;-87
2022/01/01 09:41:43;;;;;;;29.05;18.90;;;;;;;4.08;100.00;101559.97;6191407;23;20474;-87
2022/01/01 09:44:16;;;;;;;28.80;19.75;;;;;;;4.01;100.00;101556.88;6187389;23;20001;-86
2022/01/01 09:46:45;;;;;;;28.80;18.92;;;;;;;4.37;100.00;101559.00;6188110;23;20077;-89
2022/01/01 09:49:15;;;;;;;30.63;18.50;;;;;;;4.60;100.00;101561.00;6187649;23;20391;-88
2022/01/01 09:51:41;;;;;;;26.85;18.75;;;;;;;4.88;100.00;101559.19;6161846;23;20460;-87
2022/01/01 09:54:07;;;;;;;27.38;18.80;;;;;;;4.73;100.00;101562.84;6188476;23;20071;-84
2022/01/01 09:56:33;;;;;;;30.17;18.63;;;;;;;4.57;100.00;101555.94;6187365;23;20012;-89
2022/01/01 09:58:59;;;;;;;28.73;19.88;;;;;;;4.33;100.00;101551.41;6136909;23;20020;-87
2022/01/01 10:01:24;;;;;;;28.80;19.85;;;;;;;4.68;100.00;101553.47;6190166;23;20001;-87
2022/01/01 10:03:52;;;;;;;28.80;20.27;;;;;;;4.82;100.00;101549.09;6189139;23;20020;-87
2022/01/01 10:06:22;;;;;;;33.03;20.33;;;;;;;4.99;100.00;101554.09;6189663;23;20009;-89
2022/01/01 10:09:04;;;;;;;32.63;21.35;;;;;;;4.94;100.00;101549.13;6187849;23;20013;-86
2022/01/01 10:11:33;;;;;;;33.03;21.23;;;;;;;5.16;100.00;101551.19;6187258;23;20031;-88
2022/01/01 10:14:03;;;;;;;34.20;21.73;;;;;;;5.26;100.00;101565.41;6189379;23;20013;-87
2022/01/01 10:16:28;;;;;;;32.67;20.75;;;;;;;5.21;100.00;101560.44;6189105;23;20016;-87
2022/01/01 10:18:54;;;;;;;36.72;20.67;;;;;;;5.31;100.00;101552.78;6167185;23;20036;-86
2022/01/01 10:21:22;;;;;;;34.85;21.13;;;;;;;5.53;100.00;101547.78;6189743;23;20067;-89
2022/01/01 10:23:53;;;;;;;33.22;22.27;;;;;;;5.68;100.00;101551.97;6189180;23;20009;-88
2022/01/01 10:29:09;;;;;;;34.60;22.98;;;;;;;5.59;100.00;101557.88;6161819;23;20385;-89
2022/01/01 10:31:36;;;;;;;38.33;23.73;;;;;;;5.66;100.00;101559.16;6161409;23;20064;-88
2022/01/01 10:34:18;;;;;;;36.45;23.77;;;;;;;5.67;100.00;101557.31;6189453;23;20009;-86
2022/01/01 10:36:53;;;;;;;37.08;23.27;;;;;;;5.60;100.00;101556.09;6141665;23;20055;-90
2022/01/01 10:39:21;;;;;;;36.85;25.13;;;;;;;5.45;100.00;101552.72;6161414;23;20088;-88
2022/01/01 10:41:54;;;;;;;42.83;27.20;;;;;;;5.43;100.00;101557.25;6187502;23;20016;-87
2022/01/01 10:44:27;;;;;;;42.63;27.88;;;;;;;5.29;100.00;101549.44;6188951;23;20020;-87
2022/01/01 10:46:54;;;;;;;65.50;30.45;;;;;;;5.15;100.00;101554.75;6189730;23;20009;-88
2022/01/01 10:52:28;;;;;;;48.15;30.15;;;;;;;4.81;100.00;101542.16;6188550;23;20045;-88
2022/01/01 10:55:07;;;;;;;45.22;28.25;;;;;;;4.76;100.00;101542.47;6189866;23;20009;-88
2022/01/01 10:57:41;;;;;;;46.42;29.33;;;;;;;4.78;100.00;101543.22;6161223;23;20016;-88
2022/01/01 11:00:23;;;;;;;45.03;28.52;;;;;;;4.85;100.00;101538.41;6186363;23;20013;-88
2022/01/01 11:02:52;;;;;;;48.15;28.58;;;;;;;4.79;100.00;101537.03;6188583;23;20017;-85
2022/01/01 11:05:34;;;;;;;85.72;29.80;;;;;;;4.93;100.00;101533.50;6189191;23;20016;-86
2022/01/01 11:08:02;;;;;;;58.53;31.20;;;;;;;4.75;100.00;101534.69;6163877;23;20005;-86
2022/01/01 11:10:28;;;;;;;51.00;31.98;;;;;;;4.88;100.00;101527.69;6162938;23;20429;-88
2022/01/01 11:12:55;;;;;;;62.05;33.58;;;;;;;4.92;100.00;101523.91;6190798;23;20044;-86